createdAt,value
2023-05-17T00:02:30.172Z,37.80
2023-05-17T00:05:03.987Z,37.87
2023-05-17T00:07:37.639Z,37.85
2023-05-17T00:10:12.791Z,37.78
2023-05-17T00:12:46.734Z,38.12
2023-05-17T00:15:22.173Z,37.98
2023-05-17T00:17:56.046Z,38.26
2023-05-17T00:20:29.711Z,38.35
2023-05-17T00:23:03.262Z,38.33
2023-05-17T00:25:36.963Z,38.52
2023-05-17T00:28:10.439Z,38.56
2023-05-17T00:30:43.949Z,38.77
2023-05-17T00:33:17.183Z,38.94
2023-05-17T00:35:50.708Z,39.09
2023-05-17T00:38:24.522Z,39.06
2023-05-17T00:40:58.978Z,39.14
2023-05-17T00:43:32.464Z,39.41
2023-05-17T00:46:05.957Z,39.46
2023-05-17T00:48:39.776Z,39.25
2023-05-17T00:51:13.594Z,38.98
2023-05-17T00:53:47.217Z,39.08
2023-05-17T00:56:20.607Z,39.58
2023-05-17T00:58:54.697Z,39.75
2023-05-17T01:01:29.376Z,39.48
2023-05-17T01:04:03.204Z,39.83
2023-05-17T01:06:37.075Z,39.86
2023-05-17T01:09:12.522Z,39.85
2023-05-17T01:11:49.944Z,39.68
2023-05-17T01:14:31.910Z,39.60
2023-05-17T01:17:08.217Z,39.38
2023-05-17T01:20:07.750Z,39.49
2023-05-17T01:22:48.541Z,39.42
2023-05-17T01:25:30.965Z,39.29
2023-05-17T01:28:05.800Z,39.40
2023-05-17T01:30:41.260Z,39.61
2023-05-17T01:33:16.493Z,39.66
2023-05-17T01:35:49.946Z,39.81
2023-05-17T01:38:23.491Z,39.91
2023-05-17T01:40:59.946Z,39.87
2023-05-17T01:43:38.691Z,39.77
2023-05-17T01:46:17.091Z,39.82
2023-05-17T01:48:54.694Z,39.82
2023-05-17T01:51:31.354Z,40.12
2023-05-17T01:54:10.160Z,40.36
2023-05-17T01:56:46.893Z,40.47
2023-05-17T01:59:25.496Z,40.38
2023-05-17T02:02:03.938Z,40.38
2023-05-17T02:04:38.068Z,40.29
2023-05-17T02:07:11.738Z,40.59
2023-05-17T02:09:46.136Z,40.66
2023-05-17T02:12:19.982Z,40.65
2023-05-17T02:14:53.465Z,40.56
2023-05-17T02:17:27.057Z,40.74
2023-05-17T02:20:00.893Z,40.99
2023-05-17T02:22:35.308Z,41.08
2023-05-17T02:25:10.850Z,41.02
2023-05-17T02:27:46.108Z,40.85
2023-05-17T02:30:21.407Z,40.76
2023-05-17T02:32:56.941Z,40.99
2023-05-17T02:35:31.197Z,41.24
2023-05-17T02:38:04.887Z,41.13
2023-05-17T02:40:38.405Z,41.04
2023-05-17T02:43:12.097Z,41.22
2023-05-17T02:45:46.448Z,41.75
2023-05-17T02:48:19.902Z,42.12
2023-05-17T02:50:55.286Z,42.09
2023-05-17T02:53:28.916Z,42.31
2023-05-17T02:56:03.798Z,42.12
2023-05-17T02:58:37.804Z,42.58
2023-05-17T03:01:11.263Z,42.58
2023-05-17T03:03:45.078Z,42.79
2023-05-17T03:06:19.102Z,42.98
2023-05-17T03:08:53.032Z,42.82
2023-05-17T03:11:26.548Z,42.66
2023-05-17T03:14:01.224Z,42.74
2023-05-17T03:16:36.453Z,42.68
2023-05-17T03:19:11.352Z,42.60
2023-05-17T03:21:45.623Z,42.53
2023-05-17T03:24:19.267Z,42.55
2023-05-17T03:26:52.872Z,42.55
2023-05-17T03:29:26.356Z,42.55
2023-05-17T03:31:59.934Z,42.46
2023-05-17T03:34:33.358Z,42.50
2023-05-17T03:37:07.152Z,42.57
2023-05-17T03:39:40.762Z,42.41
2023-05-17T03:42:14.396Z,42.42
2023-05-17T03:44:48.136Z,42.61
2023-05-17T03:47:24.158Z,42.31
2023-05-17T03:49:57.650Z,42.39
2023-05-17T03:52:31.457Z,42.18
2023-05-17T03:55:06.089Z,42.06
2023-05-17T03:57:40.351Z,42.07
2023-05-17T04:00:18.502Z,42.37
2023-05-17T04:02:52.305Z,42.24
2023-05-17T04:05:27.243Z,42.01
2023-05-17T04:08:01.648Z,42.06
2023-05-17T04:13:17.175Z,41.64
2023-05-17T04:15:51.396Z,41.78
2023-05-17T04:18:24.977Z,41.65
2023-05-17T04:20:59.637Z,41.47
2023-05-17T04:23:33.473Z,41.38
2023-05-17T04:26:08.045Z,41.26
2023-05-17T04:28:42.999Z,41.14
2023-05-17T04:31:18.832Z,40.86
2023-05-17T04:33:52.619Z,40.56
2023-05-17T04:36:26.877Z,40.34
2023-05-17T04:39:05.623Z,40.31
2023-05-17T04:41:45.559Z,40.14
2023-05-17T04:44:20.979Z,39.94
2023-05-17T04:49:43.522Z,39.62
2023-05-17T04:52:17.045Z,39.68
2023-05-17T04:54:52.168Z,39.46
2023-05-17T04:57:27.374Z,39.35
2023-05-17T05:00:03.265Z,39.09
2023-05-17T05:02:38.234Z,39.16
2023-05-17T05:05:13.274Z,38.86
2023-05-17T05:07:47.993Z,38.87
2023-05-17T05:10:21.961Z,38.67
2023-05-17T05:12:55.532Z,38.20
2023-05-17T05:15:29.974Z,38.10
2023-05-17T05:18:04.918Z,37.81
2023-05-17T05:20:38.738Z,37.63
2023-05-17T05:23:12.725Z,37.60
2023-05-17T05:25:48.079Z,37.45
2023-05-17T05:28:22.416Z,37.25
2023-05-17T05:31:00.913Z,37.14
2023-05-17T05:33:36.568Z,37.12
2023-05-17T05:36:12.334Z,37.10
2023-05-17T05:38:49.393Z,36.77
2023-05-17T05:41:23.005Z,36.54
2023-05-17T05:43:56.586Z,36.17
2023-05-17T05:46:30.171Z,36.09
2023-05-17T05:49:04.511Z,35.99
2023-05-17T05:51:38.542Z,35.39
2023-05-17T05:54:12.694Z,34.61
2023-05-17T05:56:46.355Z,34.13
2023-05-17T05:59:20.849Z,34.15
2023-05-17T06:01:54.745Z,34.16
2023-05-17T06:04:36.716Z,33.88
2023-05-17T06:07:03.675Z,33.83
2023-05-17T06:09:37.148Z,33.87
2023-05-17T06:12:10.924Z,33.95
2023-05-17T06:14:45.561Z,33.91
2023-05-17T06:17:19.318Z,33.90
2023-05-17T06:19:52.947Z,33.69
2023-05-17T06:22:26.774Z,33.40
2023-05-17T06:25:00.716Z,33.45
2023-05-17T06:27:35.219Z,33.28
2023-05-17T06:30:10.808Z,33.10
2023-05-17T06:32:44.485Z,32.97
2023-05-17T06:35:27.054Z,33.09
2023-05-17T06:38:00.937Z,33.01
2023-05-17T06:40:34.737Z,32.49
2023-05-17T06:43:08.468Z,32.10
2023-05-17T06:45:41.911Z,32.56
2023-05-17T06:48:15.322Z,32.53
2023-05-17T06:50:48.845Z,32.34
2023-05-17T06:53:22.590Z,32.06
2023-05-17T06:55:56.463Z,31.49
2023-05-17T06:58:30.040Z,30.13
2023-05-17T07:01:03.496Z,28.62
2023-05-17T07:03:37.152Z,26.79
2023-05-17T07:06:19.198Z,24.80
2023-05-17T07:08:46.699Z,24.25
2023-05-17T07:11:19.820Z,24.03
2023-05-17T07:13:54.577Z,23.94
2023-05-17T07:16:28.891Z,22.98
2023-05-17T07:19:02.759Z,22.61
2023-05-17T07:21:36.611Z,22.12
2023-05-17T07:24:10.480Z,22.47
2023-05-17T07:26:44.080Z,23.43
2023-05-17T07:29:17.767Z,23.94
2023-05-17T07:31:51.334Z,23.03
2023-05-17T07:34:24.971Z,23.54
2023-05-17T07:36:58.434Z,23.89
2023-05-17T07:39:32.190Z,23.18
2023-05-17T07:42:06.784Z,22.15
2023-05-17T07:44:40.257Z,21.56
2023-05-17T07:47:13.751Z,20.75
2023-05-17T07:49:47.672Z,19.61
2023-05-17T07:52:21.785Z,18.74
2023-05-17T07:54:55.199Z,17.84
2023-05-17T07:57:28.866Z,18.56
2023-05-17T08:00:02.733Z,18.11
2023-05-17T08:02:38.280Z,17.40
2023-05-17T08:05:12.891Z,17.18
2023-05-17T08:07:46.819Z,16.74
2023-05-17T08:10:20.581Z,16.90
2023-05-17T08:15:36.310Z,17.80
2023-05-17T08:18:10.299Z,17.27
2023-05-17T08:20:43.966Z,17.20
2023-05-17T08:23:17.487Z,16.75
2023-05-17T08:25:50.770Z,16.62
2023-05-17T08:28:24.288Z,16.18
2023-05-17T08:30:57.851Z,15.62
2023-05-17T08:33:31.442Z,15.03
2023-05-17T08:36:06.787Z,15.06
2023-05-17T08:38:40.317Z,15.12
2023-05-17T08:41:14.543Z,15.44
2023-05-17T08:43:48.663Z,14.98
2023-05-17T08:46:22.581Z,15.03
2023-05-17T08:51:39.711Z,14.56
2023-05-17T08:54:14.373Z,14.60
2023-05-17T08:56:51.030Z,14.60
2023-05-17T08:59:25.250Z,14.40
2023-05-17T09:01:58.816Z,14.77
2023-05-17T09:04:33.412Z,15.07
2023-05-17T09:07:07.918Z,15.01
2023-05-17T09:09:41.853Z,14.79
2023-05-17T09:12:15.654Z,14.48
2023-05-17T09:14:49.286Z,14.62
2023-05-17T09:17:23.632Z,14.61
2023-05-17T09:19:58.638Z,14.51
2023-05-17T09:22:32.843Z,14.76
2023-05-17T09:25:07.464Z,14.42
2023-05-17T09:27:41.548Z,13.30
2023-05-17T09:30:16.033Z,14.85
2023-05-17T09:32:54.095Z,15.50
2023-05-17T09:35:32.887Z,14.92
2023-05-17T09:38:11.511Z,14.50
2023-05-17T09:40:46.804Z,13.89
2023-05-17T09:43:26.348Z,13.41
2023-05-17T09:46:00.765Z,14.44
2023-05-17T09:48:34.468Z,14.57
2023-05-17T09:51:09.050Z,14.51
2023-05-17T09:53:43.242Z,14.12
2023-05-17T09:56:17.522Z,14.42
2023-05-17T09:58:52.622Z,14.93
2023-05-17T10:01:28.799Z,15.12
2023-05-17T10:04:03.939Z,14.41
2023-05-17T10:09:18.637Z,13.88
2023-05-17T10:11:56.816Z,13.80
2023-05-17T10:14:32.974Z,13.20
2023-05-17T10:17:09.260Z,13.89
2023-05-17T10:19:43.140Z,14.24
2023-05-17T10:22:23.161Z,13.58
2023-05-17T10:24:54.471Z,13.28
2023-05-17T10:27:29.837Z,14.15
2023-05-17T10:30:04.122Z,14.18
2023-05-17T10:35:19.114Z,13.27
2023-05-17T10:40:36.924Z,13.52
2023-05-17T10:43:12.335Z,13.41
2023-05-17T10:45:49.472Z,13.25
2023-05-17T10:48:23.683Z,12.94
2023-05-17T10:51:01.848Z,13.46
2023-05-17T10:53:33.753Z,14.14
2023-05-17T10:56:08.198Z,13.70
2023-05-17T10:58:41.850Z,12.83
2023-05-17T11:01:23.743Z,12.74
2023-05-17T11:03:58.501Z,12.76
2023-05-17T11:06:38.521Z,13.27
2023-05-17T11:09:17.724Z,13.59
2023-05-17T11:12:11.556Z,13.56
2023-05-17T11:14:52.638Z,13.17
2023-05-17T11:17:27.705Z,13.12
2023-05-17T11:20:27.983Z,13.36
2023-05-17T11:22:48.444Z,13.45
2023-05-17T11:25:22.771Z,14.01
2023-05-17T11:27:56.413Z,15.61
2023-05-17T11:30:32.014Z,16.09
2023-05-17T11:33:13.906Z,14.97
2023-05-17T11:35:42.765Z,14.55
2023-05-17T11:38:18.006Z,13.74
2023-05-17T11:40:54.773Z,13.61
2023-05-17T11:43:28.556Z,13.06
2023-05-17T11:46:03.934Z,15.35
2023-05-17T11:48:38.054Z,13.66
2023-05-17T11:51:14.198Z,13.05
2023-05-17T11:53:48.887Z,12.85
2023-05-17T11:56:35.535Z,12.82
2023-05-17T11:59:01.158Z,12.80
2023-05-17T12:01:46.483Z,12.65
2023-05-17T12:04:27.340Z,12.50
2023-05-17T12:09:34.911Z,12.59
2023-05-17T12:12:09.840Z,12.17
2023-05-17T12:14:45.727Z,12.20
2023-05-17T12:17:25.347Z,12.29
2023-05-17T12:20:00.851Z,12.58
2023-05-17T12:22:34.577Z,13.13
2023-05-17T12:25:21.090Z,12.74
2023-05-17T12:27:53.131Z,12.61
2023-05-17T12:30:28.032Z,14.01
2023-05-17T12:33:01.962Z,13.02
2023-05-17T12:35:35.666Z,13.15
2023-05-17T12:38:11.545Z,13.28
2023-05-17T12:40:45.321Z,13.20
2023-05-17T12:43:19.962Z,13.64
2023-05-17T12:45:53.893Z,13.38
2023-05-17T12:48:30.062Z,13.20
2023-05-17T12:51:11.859Z,13.58
2023-05-17T12:53:46.274Z,13.50
2023-05-17T12:56:21.713Z,13.50
2023-05-17T12:59:09.127Z,13.44
2023-05-17T13:01:45.061Z,13.00
2023-05-17T13:04:19.402Z,13.28
2023-05-17T13:06:54.777Z,13.23
2023-05-17T13:09:31.270Z,12.86
2023-05-17T13:12:06.908Z,12.35
2023-05-17T13:14:45.276Z,12.67
2023-05-17T13:17:21.135Z,13.44
2023-05-17T13:19:54.550Z,13.26
2023-05-17T13:22:28.220Z,12.96
2023-05-17T13:25:01.547Z,13.51
2023-05-17T13:27:35.759Z,13.21
2023-05-17T13:30:12.342Z,12.99
2023-05-17T13:32:47.683Z,13.44
2023-05-17T13:35:21.105Z,13.71
2023-05-17T13:37:54.464Z,13.86
2023-05-17T13:40:28.239Z,13.84
2023-05-17T13:43:01.887Z,13.63
2023-05-17T13:45:35.223Z,13.38
2023-05-17T13:48:08.849Z,13.84
2023-05-17T13:50:42.276Z,14.09
2023-05-17T13:53:15.547Z,14.10
2023-05-17T13:55:49.279Z,14.30
2023-05-17T13:58:22.686Z,14.30
2023-05-17T14:00:56.479Z,14.31
2023-05-17T14:03:30.158Z,14.20
2023-05-17T14:06:04.449Z,14.05
2023-05-17T14:08:38.057Z,13.94
2023-05-17T14:11:11.859Z,14.11
2023-05-17T14:13:45.042Z,14.41
2023-05-17T14:16:18.262Z,14.68
2023-05-17T14:18:52.052Z,14.60
2023-05-17T14:21:25.469Z,14.40
2023-05-17T14:23:59.094Z,14.33
2023-05-17T14:26:32.740Z,14.46
2023-05-17T14:29:06.545Z,14.13
2023-05-17T14:31:40.041Z,14.31
2023-05-17T14:34:13.503Z,14.24
2023-05-17T14:36:47.041Z,14.79
2023-05-17T14:39:21.102Z,14.93
2023-05-17T14:41:54.484Z,14.91
2023-05-17T14:44:28.033Z,15.13
2023-05-17T14:47:01.809Z,14.91
2023-05-17T14:49:35.198Z,14.97
2023-05-17T14:52:09.029Z,15.08
2023-05-17T14:54:42.596Z,15.17
2023-05-17T14:57:16.471Z,15.11
2023-05-17T14:59:49.899Z,14.98
2023-05-17T15:02:23.379Z,14.80
2023-05-17T15:04:57.278Z,14.93
2023-05-17T15:07:31.621Z,15.11
2023-05-17T15:10:06.469Z,15.38
2023-05-17T15:12:40.158Z,16.00
2023-05-17T15:15:14.510Z,16.01
2023-05-17T15:17:48.038Z,16.15
2023-05-17T15:20:22.899Z,16.04
2023-05-17T15:22:56.856Z,16.13
2023-05-17T15:25:30.522Z,16.32
2023-05-17T15:28:03.931Z,16.67
2023-05-17T15:30:37.611Z,16.87
2023-05-17T15:33:11.445Z,17.03
2023-05-17T15:35:45.240Z,16.83
2023-05-17T15:38:18.426Z,16.93
2023-05-17T15:40:55.739Z,17.30
2023-05-17T15:43:29.226Z,17.51
2023-05-17T15:46:02.805Z,17.94
2023-05-17T15:48:36.577Z,17.89
2023-05-17T15:51:10.438Z,18.06
2023-05-17T15:53:44.365Z,18.43
2023-05-17T15:56:20.111Z,18.69
2023-05-17T15:58:55.224Z,18.80
2023-05-17T16:01:29.336Z,18.84
2023-05-17T16:04:02.963Z,18.97
2023-05-17T16:06:37.023Z,19.38
2023-05-17T16:09:11.973Z,19.08
2023-05-17T16:11:45.715Z,19.25
2023-05-17T16:14:19.521Z,19.48
2023-05-17T16:16:53.483Z,19.81
2023-05-17T16:19:27.777Z,19.95
2023-05-17T16:22:01.805Z,20.07
2023-05-17T16:24:35.893Z,20.17
2023-05-17T16:27:10.316Z,20.55
2023-05-17T16:29:44.406Z,20.74
2023-05-17T16:32:18.754Z,21.03
2023-05-17T16:34:52.813Z,21.32
2023-05-17T16:37:26.492Z,21.31
2023-05-17T16:40:00.771Z,21.42
2023-05-17T16:42:35.083Z,21.48
2023-05-17T16:45:10.987Z,21.73
2023-05-17T16:47:44.294Z,21.77
2023-05-17T16:50:18.225Z,22.15
2023-05-17T16:52:52.101Z,22.00
2023-05-17T16:55:25.643Z,21.98
2023-05-17T16:57:59.263Z,22.48
2023-05-17T17:00:32.957Z,22.64
2023-05-17T17:03:09.564Z,22.54
2023-05-17T17:05:41.994Z,22.66
2023-05-17T17:08:15.597Z,22.54
2023-05-17T17:10:49.083Z,23.01
2023-05-17T17:13:22.827Z,23.08
2023-05-17T17:15:56.723Z,23.24
2023-05-17T17:18:30.325Z,23.10
2023-05-17T17:21:06.985Z,23.28
2023-05-17T17:23:40.417Z,23.32
2023-05-17T17:26:13.945Z,23.27
2023-05-17T17:28:47.609Z,23.39
2023-05-17T17:31:20.759Z,23.41
2023-05-17T17:33:54.785Z,23.59
2023-05-17T17:36:28.820Z,23.63
2023-05-17T17:39:02.232Z,23.70
2023-05-17T17:41:35.915Z,23.89
2023-05-17T17:44:09.434Z,23.92
2023-05-17T17:46:43.171Z,23.93
2023-05-17T17:49:16.650Z,24.16
2023-05-17T17:51:50.224Z,24.09
2023-05-17T17:54:23.405Z,24.04
2023-05-17T17:56:56.975Z,24.10
2023-05-17T17:59:30.481Z,24.19
2023-05-17T18:02:03.827Z,24.28
2023-05-17T18:04:37.502Z,24.42
2023-05-17T18:07:12.513Z,24.52
2023-05-17T18:09:46.458Z,24.53
2023-05-17T18:12:20.792Z,24.67
2023-05-17T18:14:53.983Z,24.67
2023-05-17T18:17:28.629Z,24.64
2023-05-17T18:20:02.123Z,24.93
2023-05-17T18:22:36.395Z,25.09
2023-05-17T18:25:11.742Z,25.15
2023-05-17T18:27:44.961Z,25.28
2023-05-17T18:33:27.563Z,25.01
2023-05-17T18:36:01.805Z,25.44
2023-05-17T18:38:35.636Z,25.57
2023-05-17T18:41:09.089Z,25.45
2023-05-17T18:43:42.779Z,25.55
2023-05-17T18:46:16.385Z,25.70
2023-05-17T18:48:50.539Z,25.76
2023-05-17T18:51:24.860Z,25.79
2023-05-17T18:53:58.774Z,25.96
2023-05-17T18:56:32.856Z,25.90
2023-05-17T18:59:06.556Z,26.10
2023-05-17T19:01:40.287Z,26.04
2023-05-17T19:04:15.290Z,26.12
2023-05-17T19:06:49.569Z,26.14
2023-05-17T19:09:23.126Z,26.23
2023-05-17T19:11:57.743Z,26.64
2023-05-17T19:14:32.190Z,26.45
2023-05-17T19:17:05.870Z,26.34
2023-05-17T19:19:39.432Z,26.52
2023-05-17T19:22:13.113Z,26.68
2023-05-17T19:27:19.975Z,26.67
2023-05-17T19:29:53.537Z,26.62
2023-05-17T19:32:27.203Z,26.77
2023-05-17T19:35:01.330Z,26.69
2023-05-17T19:37:35.523Z,26.82
2023-05-17T19:40:10.878Z,26.87
2023-05-17T19:42:44.479Z,26.96
2023-05-17T19:45:18.541Z,27.01
2023-05-17T19:47:53.487Z,27.18
2023-05-17T19:50:27.635Z,27.14
2023-05-17T19:53:01.955Z,27.20
2023-05-17T19:55:36.786Z,27.26
2023-05-17T19:58:09.944Z,27.35
2023-05-17T20:00:43.263Z,27.40
2023-05-17T20:03:16.811Z,27.50
2023-05-17T20:05:50.826Z,27.55
2023-05-17T20:08:24.116Z,27.61
2023-05-17T20:10:58.778Z,27.73
2023-05-17T20:13:34.218Z,27.80
2023-05-17T20:16:11.469Z,27.85
2023-05-17T20:21:19.950Z,27.89
2023-05-17T20:23:55.424Z,27.94
2023-05-17T20:26:30.557Z,28.07
2023-05-17T20:29:04.006Z,28.19
2023-05-17T20:31:38.132Z,28.19
2023-05-17T20:34:12.358Z,28.31
2023-05-17T20:36:46.862Z,28.53
2023-05-17T20:39:22.222Z,28.45
2023-05-17T20:41:57.034Z,28.36
2023-05-17T20:44:30.378Z,28.45
2023-05-17T20:47:08.173Z,28.52
2023-05-17T20:49:41.725Z,28.65
2023-05-17T20:52:17.883Z,28.71
2023-05-17T20:54:52.233Z,28.79
2023-05-17T20:57:25.871Z,28.83
2023-05-17T20:59:59.215Z,28.90
2023-05-17T21:02:36.690Z,28.97
2023-05-17T21:05:11.007Z,29.06
2023-05-17T21:07:45.925Z,29.10
2023-05-17T21:10:19.211Z,29.12
2023-05-17T21:12:52.772Z,29.26
2023-05-17T21:15:26.457Z,29.37
2023-05-17T21:18:00.565Z,29.38
2023-05-17T21:20:34.182Z,29.38
2023-05-17T21:23:07.421Z,29.56
2023-05-17T21:28:25.219Z,29.12
2023-05-17T21:31:17.206Z,29.95
2023-05-17T21:34:02.509Z,30.07
2023-05-17T21:37:48.238Z,30.04
2023-05-17T21:40:23.616Z,30.45
2023-05-17T21:42:56.670Z,30.37
2023-05-17T21:45:34.335Z,30.57
2023-05-17T21:48:08.753Z,30.71
2023-05-17T21:50:42.145Z,30.87
2023-05-17T21:53:15.801Z,31.00
2023-05-17T21:56:01.357Z,30.96
2023-05-17T21:58:25.349Z,30.98
2023-05-17T22:00:59.021Z,31.10
2023-05-17T22:03:32.538Z,31.57
2023-05-17T22:06:06.162Z,31.27
2023-05-17T22:08:41.113Z,31.30
2023-05-17T22:11:14.633Z,31.11
2023-05-17T22:13:47.753Z,31.37
2023-05-17T22:16:23.997Z,31.45
2023-05-17T22:18:59.156Z,31.61
2023-05-17T22:24:20.002Z,30.73
2023-05-17T22:26:53.249Z,34.67
2023-05-17T22:29:26.801Z,32.70
2023-05-17T22:32:00.308Z,32.40
2023-05-17T22:34:34.449Z,32.22
2023-05-17T22:37:09.839Z,32.11
2023-05-17T22:39:43.647Z,32.26
2023-05-17T22:42:17.271Z,32.32
2023-05-17T22:44:51.427Z,32.38
2023-05-17T22:47:26.562Z,32.60
2023-05-17T22:50:00.901Z,32.72
2023-05-17T22:52:35.256Z,32.56
2023-05-17T22:55:10.657Z,32.46
2023-05-17T22:57:44.219Z,32.69
2023-05-17T23:00:19.412Z,32.78
2023-05-17T23:02:52.929Z,32.73
2023-05-17T23:05:26.940Z,32.70
2023-05-17T23:08:01.272Z,32.85
2023-05-17T23:10:35.105Z,32.96
2023-05-17T23:13:08.883Z,33.03
2023-05-17T23:15:44.147Z,33.17
2023-05-17T23:18:18.274Z,33.06
2023-05-17T23:20:51.607Z,33.06
2023-05-17T23:23:25.804Z,33.24
2023-05-17T23:25:59.998Z,33.58
2023-05-17T23:28:33.626Z,33.52
2023-05-17T23:31:08.735Z,33.54
2023-05-17T23:33:42.702Z,33.51
2023-05-17T23:36:16.372Z,33.47
2023-05-17T23:38:50.614Z,33.61
2023-05-17T23:41:25.504Z,33.64
2023-05-17T23:44:00.577Z,33.59
2023-05-17T23:46:34.478Z,33.52
2023-05-17T23:49:08.388Z,33.75
2023-05-17T23:51:41.927Z,34.03
2023-05-17T23:54:16.204Z,34.41
2023-05-17T23:56:50.011Z,34.58
2023-05-17T23:59:24.532Z,34.68
